Balcones Heights, Texas
Current Conditions -  °F | °C
As of 3:32 AM on Friday 31 Oct 2014 (Local Time) from KSAT Reporting Station
Thunderstorm Thunderstorm  
Wind Chill: 69°   Ceiling: 1200
Heat Index: 69°   Visibility: 10mi
Dew Point: 63°   Wind: 10mph
Humidity: 81%   Direction: 350°N
Pressure: 30.13"   Gusts: NA
Location:  29.4697°N, 98.5294°W
Report Text: KSAT 310832Z COR 35009KT 10SM -TSRA BKN012 OVC040 21/17 A3013 RMK AO2 DZE11RAB11 TSE25B32 TS OCNL LTGIC DSNT NW-NE SE MOVG S DZE11RAB11 P0000 T02060172
Loading
Personal Weather Stations






























Interactive Weather Map
Tropical Storm Tracking
New forecast layout! Learn more

10-Day Weather Forecast

Advertisements
Track Severe Weather on mobile